Time;durP1;ratioP1;P1;durP2;ratioP2;P2;SDS_P1;SDS_P2;PMS_P1;PMS_P2;Temp;Humidity;BMP_temperature;BMP_pressure;BME280_temperature;BME280_humidity;BME280_pressure;Samples;Min_cycle;Max_cycle;Signal;HPM_P1;HPM_P2
2023/07/30 04:22:33;;;;;;;2.47;1.70;;;;;;;17.08;100.00;99880.88;5109934;27;20733;-70
2023/07/30 04:24:59;;;;;;;1.85;1.48;;;;;;;17.07;100.00;99877.34;5108324;28;20036;-69
2023/07/30 04:27:24;;;;;;;3.30;1.80;;;;;;;17.05;100.00;99878.63;5108362;28;20447;-69
2023/07/30 04:29:50;;;;;;;3.60;1.77;;;;;;;17.00;100.00;99882.00;5108212;28;20063;-70
2023/07/30 04:32:15;;;;;;;2.90;1.60;;;;;;;16.97;100.00;99885.16;5109761;28;20472;-70
2023/07/30 04:34:40;;;;;;;2.28;1.65;;;;;;;16.98;100.00;99886.78;5109675;28;20411;-69
2023/07/30 04:37:07;;;;;;;3.90;2.22;;;;;;;16.95;100.00;99898.00;5108616;28;20399;-69
2023/07/30 04:39:35;;;;;;;2.35;1.50;;;;;;;16.95;100.00;99889.09;5107904;28;20073;-70
2023/07/30 04:42:01;;;;;;;2.88;1.55;;;;;;;16.96;100.00;99901.53;5108146;28;20036;-69
2023/07/30 04:44:27;;;;;;;3.08;1.80;;;;;;;16.95;100.00;99889.94;5108121;28;20040;-69
2023/07/30 04:46:55;;;;;;;5.22;2.40;;;;;;;16.98;100.00;99883.28;5108049;28;20459;-70
2023/07/30 04:49:20;;;;;;;2.60;1.88;;;;;;;16.98;100.00;99886.78;5107454;28;20122;-70
2023/07/30 04:51:47;;;;;;;2.40;1.67;;;;;;;16.98;100.00;99885.97;5108032;28;20484;-70
2023/07/30 04:54:14;;;;;;;4.32;2.05;;;;;;;16.98;100.00;99883.28;5108165;28;20468;-70
2023/07/30 04:56:43;;;;;;;2.92;2.20;;;;;;;16.98;100.00;99892.16;5107990;28;20115;-70
2023/07/30 04:59:08;;;;;;;2.35;1.85;;;;;;;16.99;100.00;99887.59;5107654;28;20043;-70
2023/07/30 05:01:34;;;;;;;2.13;1.30;;;;;;;16.97;100.00;99887.03;5107893;28;20039;-69
2023/07/30 05:03:59;;;;;;;2.28;1.60;;;;;;;16.99;100.00;99893.00;5109294;28;20039;-70
2023/07/30 05:06:25;;;;;;;2.83;1.60;;;;;;;17.01;100.00;99899.78;5109038;28;20039;-70
2023/07/30 05:08:50;;;;;;;4.28;2.35;;;;;;;17.04;100.00;99893.97;5108884;28;20040;-70
2023/07/30 05:11:15;;;;;;;3.47;2.20;;;;;;;17.09;100.00;99894.13;5109142;28;20032;-69
2023/07/30 05:13:41;;;;;;;4.50;2.00;;;;;;;17.16;100.00;99898.59;5107736;28;20118;-70
2023/07/30 05:16:06;;;;;;;3.67;2.58;;;;;;;17.23;100.00;99896.66;5107569;28;20047;-70
2023/07/30 05:18:32;;;;;;;3.20;2.20;;;;;;;17.28;100.00;99899.50;5108478;28;20063;-70
2023/07/30 05:20:57;;;;;;;3.35;2.50;;;;;;;17.36;100.00;99907.28;5108462;28;20119;-70
2023/07/30 05:23:23;;;;;;;3.20;2.70;;;;;;;17.42;100.00;99898.28;5108676;28;20111;-70
2023/07/30 05:25:48;;;;;;;3.45;2.58;;;;;;;17.49;100.00;99892.81;5108625;28;20028;-69
2023/07/30 05:28:14;;;;;;;5.05;2.83;;;;;;;17.55;100.00;99883.84;5108470;28;20467;-69
2023/07/30 05:30:39;;;;;;;3.92;2.70;;;;;;;17.57;100.00;99877.16;5108540;28;20044;-70
2023/07/30 05:33:05;;;;;;;3.88;3.30;;;;;;;17.62;100.00;99866.53;5099807;28;20040;-70
2023/07/30 05:35:30;;;;;;;4.38;2.92;;;;;;;17.69;100.00;99873.72;5094861;28;20040;-69
2023/07/30 05:37:56;;;;;;;4.35;3.15;;;;;;;17.77;100.00;99876.09;5094861;28;20040;-70
2023/07/30 05:40:21;;;;;;;4.10;2.85;;;;;;;17.80;100.00;99881.88;5094473;28;20124;-69
2023/07/30 05:42:47;;;;;;;3.83;2.63;;;;;;;17.88;100.00;99884.22;5094951;28;20044;-69
2023/07/30 05:45:12;;;;;;;3.83;2.42;;;;;;;17.95;100.00;99888.69;5094707;28;20071;-69
2023/07/30 05:47:38;;;;;;;4.05;2.97;;;;;;;18.03;100.00;99888.38;5094710;28;20047;-70
2023/07/30 05:50:04;;;;;;;4.18;2.92;;;;;;;18.06;100.00;99886.03;5094631;28;20081;-70
2023/07/30 05:52:29;;;;;;;3.97;2.83;;;;;;;18.12;100.00;99878.88;5094913;28;20040;-69
2023/07/30 05:54:55;;;;;;;3.65;2.80;;;;;;;18.20;100.00;99875.06;5094596;28;20044;-70
2023/07/30 05:57:20;;;;;;;3.88;2.80;;;;;;;18.30;100.00;99880.69;5094377;28;20118;-70
2023/07/30 05:59:46;;;;;;;3.00;2.47;;;;;;;18.42;100.00;99881.50;5094249;28;20032;-69
2023/07/30 06:02:12;;;;;;;3.67;2.65;;;;;;;18.51;100.00;99884.69;5094401;28;20125;-69
2023/07/30 06:04:37;;;;;;;3.25;2.40;;;;;;;18.60;100.00;99892.19;5094571;28;20536;-69
2023/07/30 06:07:03;;;;;;;3.92;2.75;;;;;;;18.63;100.00;99889.03;5094333;28;20135;-69
2023/07/30 06:09:29;;;;;;;4.82;2.55;;;;;;;18.67;100.00;99892.13;5094097;28;20105;-70
2023/07/30 06:11:57;;;;;;;3.08;2.40;;;;;;;18.64;100.00;99893.34;5094414;28;20509;-70
2023/07/30 06:14:22;;;;;;;3.17;2.45;;;;;;;18.67;100.00;99902.91;5094272;28;20126;-70
2023/07/30 06:16:48;;;;;;;4.57;2.40;;;;;;;18.64;100.00;99904.16;5094096;28;20131;-70
2023/07/30 06:19:13;;;;;;;4.45;2.53;;;;;;;18.68;100.00;99908.06;5093869;28;20036;-70
2023/07/30 06:21:39;;;;;;;4.25;2.42;;;;;;;18.63;100.00;99912.47;5092726;28;20446;-71
2023/07/30 06:24:04;;;;;;;3.17;2.20;;;;;;;18.61;100.00;99915.41;5093992;28;20438;-66
2023/07/30 06:26:30;;;;;;;2.70;2.13;;;;;;;18.54;100.00;99920.09;5092700;28;20043;-65
2023/07/30 06:28:55;;;;;;;2.25;1.75;;;;;;;18.33;100.00;99932.28;5092351;28;20033;-65
2023/07/30 06:31:21;;;;;;;3.22;2.05;;;;;;;18.28;100.00;99936.72;5092739;28;20392;-65
2023/07/30 06:33:46;;;;;;;3.65;1.90;;;;;;;18.24;100.00;99940.91;5093907;28;20117;-66
2023/07/30 06:36:11;;;;;;;2.28;1.90;;;;;;;18.12;100.00;99938.19;5093753;28;20381;-66
2023/07/30 06:38:37;;;;;;;3.20;2.15;;;;;;;18.08;100.00;99937.84;5093457;28;20081;-65
2023/07/30 06:41:03;;;;;;;3.42;2.22;;;;;;;18.08;100.00;99931.63;5093684;28;20040;-65
2023/07/30 06:43:28;;;;;;;2.70;2.03;;;;;;;18.04;100.00;99947.41;5093350;28;20040;-65
2023/07/30 06:45:54;;;;;;;2.70;1.90;;;;;;;18.03;100.00;99943.09;5092884;28;20539;-65
2023/07/30 06:48:19;;;;;;;3.15;1.90;;;;;;;18.04;100.00;99951.97;5093339;28;20146;-65
2023/07/30 06:50:45;;;;;;;3.10;2.00;;;;;;;18.07;100.00;99955.06;5093549;28;20111;-65
2023/07/30 06:53:10;;;;;;;2.92;2.22;;;;;;;18.10;100.00;99959.16;5092160;28;20064;-65
2023/07/30 06:55:36;;;;;;;3.40;2.45;;;;;;;18.21;100.00;99960.25;5092096;28;20127;-65
2023/07/30 06:58:02;;;;;;;4.07;2.58;;;;;;;18.23;100.00;99961.66;5093388;28;20035;-65
2023/07/30 07:00:27;;;;;;;2.75;2.20;;;;;;;18.27;100.00;99962.03;5092839;28;20105;-65
2023/07/30 07:02:53;;;;;;;4.28;2.80;;;;;;;18.28;100.00;99958.28;5094622;28;20035;-65
2023/07/30 07:05:18;;;;;;;4.63;2.83;;;;;;;18.30;100.00;99956.16;5092978;28;20107;-65
2023/07/30 07:07:45;;;;;;;3.63;2.40;;;;;;;18.30;100.00;99956.16;5094275;28;20036;-65
2023/07/30 07:10:10;;;;;;;3.20;2.30;;;;;;;18.34;100.00;99966.25;5113254;28;20036;-65
2023/07/30 07:12:38;;;;;;;4.93;2.38;;;;;;;18.32;100.00;99970.22;5113547;28;20044;-65
2023/07/30 07:15:04;;;;;;;2.72;2.22;;;;;;;18.34;100.00;99977.06;5113387;28;20035;-65
2023/07/30 07:17:29;;;;;;;3.03;2.50;;;;;;;18.37;100.00;99981.16;5102575;28;20059;-65
2023/07/30 07:19:55;;;;;;;2.80;2.40;;;;;;;18.34;100.00;99984.31;5092752;28;20071;-65
2023/07/30 07:22:20;;;;;;;3.80;2.65;;;;;;;18.37;100.00;100000.03;5091676;28;20032;-65
2023/07/30 07:24:46;;;;;;;3.55;2.35;;;;;;;18.40;100.00;99988.78;5091813;28;20124;-54
2023/07/30 07:27:11;;;;;;;2.40;1.90;;;;;;;18.44;100.00;99989.97;5092838;28;20043;-53
2023/07/30 07:29:37;;;;;;;2.42;2.17;;;;;;;18.47;100.00;99986.81;5091840;28;20036;-55
2023/07/30 07:32:02;;;;;;;2.38;2.13;;;;;;;18.53;100.00;99985.91;5092665;28;20036;-56
2023/07/30 07:34:28;;;;;;;3.55;2.00;;;;;;;18.63;100.00;99991.53;5093695;28;20046;-65
2023/07/30 07:36:53;;;;;;;2.70;2.30;;;;;;;18.74;100.00;99997.22;5095203;28;20035;-65
2023/07/30 07:39:19;;;;;;;5.40;2.78;;;;;;;18.85;100.00;99985.63;5094320;28;20054;-65
2023/07/30 07:41:45;;;;;;;3.30;2.30;;;;;;;18.99;100.00;99978.94;5094079;28;20036;-65
2023/07/30 07:44:10;;;;;;;2.63;2.15;;;;;;;19.14;100.00;99992.78;5093552;28;20515;-65
2023/07/30 07:46:36;;;;;;;2.00;1.80;;;;;;;19.23;100.00;99993.22;5093771;28;20496;-65
2023/07/30 07:49:01;;;;;;;2.28;1.85;;;;;;;19.23;100.00;99987.81;5093070;28;20036;-65
2023/07/30 07:51:27;;;;;;;2.10;1.88;;;;;;;19.20;100.00;99986.44;5092881;28;20408;-63
2023/07/30 07:53:52;;;;;;;3.28;1.80;;;;;;;19.24;100.00;99987.63;5093131;28;20059;-64
2023/07/30 07:56:17;;;;;;;3.67;2.00;;;;;;;19.27;100.00;99982.78;5090976;28;20515;-64
2023/07/30 07:58:43;;;;;;;3.78;2.00;;;;;;;19.26;100.00;99979.28;5092143;28;20044;-63
2023/07/30 08:01:08;;;;;;;3.25;2.35;;;;;;;19.32;100.00;99985.59;5092473;28;20032;-65
2023/07/30 08:03:34;;;;;;;3.45;2.47;;;;;;;19.38;100.00;99990.06;5092451;28;20108;-64
2023/07/30 08:05:59;;;;;;;3.08;1.90;;;;;;;19.47;100.00;99980.53;5092471;28;20036;-64
2023/07/30 08:08:26;;;;;;;3.05;1.95;;;;;;;19.63;100.00;99981.72;5092000;28;20058;-64
2023/07/30 08:10:52;;;;;;;2.83;2.28;;;;;;;19.67;100.00;99982.84;5092077;28;20039;-65
2023/07/30 08:13:17;;;;;;;2.25;1.77;;;;;;;19.63;100.00;99976.31;5092229;28;20036;-64
2023/07/30 08:15:43;;;;;;;2.50;1.85;;;;;;;19.65;100.00;99985.81;5092201;28;20145;-64
2023/07/30 08:18:08;;;;;;;1.90;1.70;;;;;;;19.69;100.00;100000.50;5092138;28;20047;-65
2023/07/30 08:20:34;;;;;;;2.75;2.13;;;;;;;19.84;100.00;99994.56;5091772;28;20036;-64
2023/07/30 08:22:59;;;;;;;2.97;2.00;;;;;;;20.00;100.00;99987.56;5092117;28;20040;-65
2023/07/30 08:25:25;;;;;;;2.33;1.80;;;;;;;20.17;100.00;99999.25;5091974;28;20634;-64
2023/07/30 08:27:50;;;;;;;2.00;1.77;;;;;;;20.21;100.00;99999.59;5092351;28;20024;-65
2023/07/30 08:30:16;;;;;;;2.22;1.90;;;;;;;20.23;100.00;100008.28;5091916;28;20036;-63
2023/07/30 08:32:43;;;;;;;2.45;1.83;;;;;;;20.21;100.00;100005.00;5092085;28;20058;-64
2023/07/30 08:35:09;;;;;;;2.78;1.70;;;;;;;20.17;100.00;100003.84;5091822;28;20481;-64
2023/07/30 08:37:34;;;;;;;2.05;1.70;;;;;;;20.04;100.00;100008.47;5091980;28;20409;-64
2023/07/30 08:39:59;;;;;;;2.58;1.73;;;;;;;19.95;100.00;100014.50;5091943;28;20036;-64
2023/07/30 08:42:25;;;;;;;3.17;1.98;;;;;;;20.01;100.00;100021.63;5091911;28;20686;-64
2023/07/30 08:44:50;;;;;;;2.20;1.98;;;;;;;20.21;100.00;100021.22;5091838;28;20048;-64
2023/07/30 08:47:16;;;;;;;2.20;1.70;;;;;;;20.36;100.00;100015.28;5091779;28;20028;-65
2023/07/30 08:49:41;;;;;;;3.17;2.22;;;;;;;20.57;100.00;100014.59;5091620;28;20504;-64
2023/07/30 08:52:09;;;;;;;3.67;1.88;;;;;;;20.68;100.00;100010.19;5091863;28;20435;-64
2023/07/30 08:54:36;;;;;;;2.80;1.70;;;;;;;20.73;100.00;100016.50;5092142;28;20413;-64
2023/07/30 08:57:03;;;;;;;2.50;1.88;;;;;;;20.64;100.00;100015.25;5091796;28;20442;-64
2023/07/30 08:59:33;;;;;;;3.15;1.83;;;;;;;20.81;100.00;100016.09;5091441;28;20040;-64
2023/07/30 09:02:00;;;;;;;2.00;1.58;;;;;;;20.85;100.00;100029.94;5091791;28;20044;-64
2023/07/30 09:04:30;;;;;;;3.00;1.90;;;;;;;20.90;100.00;100019.22;5091668;28;20028;-64
2023/07/30 09:06:55;;;;;;;1.95;1.77;;;;;;;21.07;100.00;100032.75;5091826;28;20044;-64
2023/07/30 09:09:21;;;;;;;2.58;1.88;;;;;;;21.12;100.00;100025.50;5095649;28;20047;-64
2023/07/30 09:11:55;;;;;;;3.97;2.20;;;;;;;21.18;100.00;100022.88;5095831;28;20080;-63
2023/07/30 09:14:21;;;;;;;4.22;2.08;;;;;;;21.21;100.00;100034.06;5095732;28;20063;-64
2023/07/30 09:16:47;;;;;;;3.35;1.98;;;;;;;21.28;100.00;100037.44;5095591;28;20672;-64
2023/07/30 09:19:17;;;;;;;3.08;2.00;;;;;;;21.34;98.21;100039.16;5095332;28;20028;-64
2023/07/30 09:21:42;;;;;;;4.07;2.08;;;;;;;21.41;98.36;100041.69;5095699;28;20130;-64
2023/07/30 09:24:07;;;;;;;2.92;1.75;;;;;;;21.55;93.05;100031.31;5094340;28;20173;-64
2023/07/30 09:26:43;;;;;;;2.80;1.85;;;;;;;21.57;92.06;100037.28;5095342;28;20062;-64
2023/07/30 09:29:09;;;;;;;2.70;1.98;;;;;;;21.85;93.12;100045.25;5095072;28;20405;-63
2023/07/30 09:31:53;;;;;;;2.88;2.10;;;;;;;21.69;88.01;100043.41;5095437;28;20032;-62
2023/07/30 09:34:18;;;;;;;2.55;1.95;;;;;;;21.90;87.05;100052.63;5095047;28;20043;-63
2023/07/30 09:36:45;;;;;;;3.60;2.08;;;;;;;21.97;87.86;100047.00;5095249;28;20028;-62
2023/07/30 09:39:19;;;;;;;3.45;2.05;;;;;;;22.09;91.13;100058.56;5094725;28;20040;-63
2023/07/30 09:41:45;;;;;;;4.30;2.35;;;;;;;22.09;87.42;100056.69;5094779;28;20036;-64
2023/07/30 09:44:12;;;;;;;3.42;2.05;;;;;;;22.28;86.16;100059.06;5094771;28;20066;-64
2023/07/30 09:46:45;;;;;;;5.03;2.42;;;;;;;22.42;85.04;100061.13;5093850;28;20035;-64
2023/07/30 09:49:11;;;;;;;4.78;2.28;;;;;;;22.37;78.51;100065.69;5094482;28;20032;-64
2023/07/30 09:51:40;;;;;;;6.63;2.47;;;;;;;22.19;81.48;100062.22;5095030;28;20039;-65
2023/07/30 09:54:09;;;;;;;3.47;2.67;;;;;;;22.03;80.41;100071.22;5094971;28;20028;-65
2023/07/30 09:56:39;;;;;;;7.03;2.53;;;;;;;21.83;83.13;100066.38;5095430;28;20036;-65
2023/07/30 09:59:09;;;;;;;8.38;2.80;;;;;;;21.90;82.38;100074.31;5092270;28;20044;-66
2023/07/30 10:01:41;;;;;;;3.75;2.75;;;;;;;21.71;83.91;100062.94;5094007;28;20032;-65
2023/07/30 10:04:10;;;;;;;3.25;2.15;;;;;;;21.35;86.80;100073.28;5094418;28;20028;-65
2023/07/30 10:06:41;;;;;;;4.13;2.83;;;;;;;21.11;87.20;100072.63;5094315;28;20043;-65
2023/07/30 10:09:08;;;;;;;5.22;3.13;;;;;;;21.07;88.81;100076.91;5093662;28;20174;-64
2023/07/30 10:11:34;;;;;;;;;;;;;;;21.14;90.41;100076.72;5094528;28;20104;-63
2023/07/30 10:14:00;;;;;;;4.90;3.13;;;;;;;21.13;87.94;100085.94;5094034;28;19922;-65
2023/07/30 10:16:27;;;;;;;5.15;3.00;;;;;;;21.09;90.37;100101.03;5094254;28;20119;-65
2023/07/30 10:18:57;;;;;;;5.70;3.20;;;;;;;21.02;90.16;100094.94;5093093;28;20044;-64
2023/07/30 10:21:24;;;;;;;4.57;2.70;;;;;;;20.98;90.43;100097.31;5093952;28;20040;-64
2023/07/30 10:23:58;;;;;;;5.85;2.63;;;;;;;21.12;89.41;100105.94;5092761;28;20032;-65
2023/07/30 10:26:28;;;;;;;5.63;2.60;;;;;;;21.19;86.21;100103.91;5094185;28;20392;-65
2023/07/30 10:29:15;;;;;;;3.03;2.25;;;;;;;21.07;83.69;100103.16;5093239;28;20032;-65
2023/07/30 10:31:42;;;;;;;5.03;2.90;;;;;;;20.90;83.85;100105.03;5093762;28;20047;-64
2023/07/30 10:34:09;;;;;;;5.38;2.65;;;;;;;20.89;84.12;100116.91;5094023;28;20052;-64
2023/07/30 10:36:44;;;;;;;7.03;3.50;;;;;;;20.90;85.72;100099.59;5093664;28;20044;-63
2023/07/30 10:39:18;;;;;;;5.22;2.50;;;;;;;21.11;84.93;100105.09;5092863;28;20473;-64
2023/07/30 10:41:45;;;;;;;4.13;2.50;;;;;;;21.31;80.15;100112.78;5094127;28;20032;-64
2023/07/30 10:44:43;;;;;;;3.97;2.20;;;;;;;21.84;82.94;100115.97;5093801;28;20069;-63
2023/07/30 10:47:08;;;;;;;5.63;2.55;;;;;;;21.95;80.06;100110.44;5089089;28;20533;-63
2023/07/30 10:49:40;;;;;;;4.60;2.17;;;;;;;22.03;81.30;100116.50;5091674;28;20040;-63
2023/07/30 10:52:06;;;;;;;6.30;3.72;;;;;;;21.99;78.42;100101.81;5094305;28;20044;-63
2023/07/30 10:54:35;;;;;;;8.70;3.78;;;;;;;21.85;80.59;100106.81;5093724;28;20500;-63
2023/07/30 10:57:02;;;;;;;4.00;2.28;;;;;;;21.74;79.08;100110.44;5093555;28;20028;-64
2023/07/30 10:59:34;;;;;;;3.70;2.13;;;;;;;22.29;81.99;100117.66;5093146;28;20036;-62
2023/07/30 11:01:59;;;;;;;7.22;2.10;;;;;;;23.15;78.41;100120.50;5091828;28;20166;-63
2023/07/30 11:04:25;;;;;;;4.07;2.20;;;;;;;23.79;70.27;100112.25;5093580;28;20115;-64
2023/07/30 11:06:51;;;;;;;3.63;1.98;;;;;;;23.57;65.19;100117.81;5093253;28;20047;-64
2023/07/30 11:09:21;;;;;;;3.38;1.63;;;;;;;23.54;60.24;100123.78;5092992;28;20040;-67
2023/07/30 11:11:47;;;;;;;5.57;1.95;;;;;;;23.54;60.15;100121.06;5093276;28;20036;-65
2023/07/30 11:14:17;;;;;;;2.97;1.50;;;;;;;23.33;57.98;100120.06;5093422;28;20046;-65
2023/07/30 11:16:50;;;;;;;2.80;1.50;;;;;;;23.41;58.06;100121.47;5093529;28;20119;-64
2023/07/30 11:19:16;;;;;;;4.63;1.60;;;;;;;23.69;58.40;100114.94;5091861;28;20173;-63
2023/07/30 11:21:49;;;;;;;3.25;1.67;;;;;;;24.10;63.60;100132.28;5092998;28;20115;-63
2023/07/30 11:24:14;;;;;;;5.57;2.53;;;;;;;24.30;57.27;100117.94;5092962;28;20477;-63
2023/07/30 11:26:40;;;;;;;3.10;1.45;;;;;;;24.61;57.04;100124.31;5092787;28;20063;-62
2023/07/30 11:29:19;;;;;;;4.65;1.73;;;;;;;24.85;61.15;100132.81;5092839;28;20043;-63
2023/07/30 11:31:47;;;;;;;3.95;1.77;;;;;;;25.35;54.53;100125.75;5092227;28;20603;-64
2023/07/30 11:34:18;;;;;;;4.45;1.60;;;;;;;25.54;53.76;100135.00;5093721;28;20092;-64
2023/07/30 11:36:44;;;;;;;3.42;1.55;;;;;;;25.87;51.28;100116.44;5093459;28;20170;-65
2023/07/30 11:39:10;;;;;;;3.25;1.40;;;;;;;26.38;49.38;100117.03;5092717;28;20528;-65
2023/07/30 11:41:36;;;;;;;4.72;1.50;;;;;;;26.76;48.21;100123.69;5093227;28;20051;-65
2023/07/30 11:44:03;;;;;;;2.85;1.48;;;;;;;27.10;47.10;100127.56;5091376;28;20046;-65
2023/07/30 11:46:30;;;;;;;3.17;1.45;;;;;;;27.05;47.96;100125.69;5092477;28;20027;-63
2023/07/30 11:49:14;;;;;;;3.03;1.40;;;;;;;27.52;47.25;100124.19;5092689;28;20130;-63
2023/07/30 11:51:41;;;;;;;3.45;1.80;;;;;;;27.20;45.33;100127.50;5092522;28;20039;-65
2023/07/30 11:54:06;;;;;;;3.03;1.30;;;;;;;27.45;48.64;100135.47;5092866;28;20413;-64
2023/07/30 11:56:35;;;;;;;4.68;1.73;;;;;;;27.23;45.94;100132.38;5092626;28;20032;-65
2023/07/30 11:59:07;;;;;;;2.97;1.40;;;;;;;27.35;45.19;100132.00;5092354;28;20432;-63
2023/07/30 12:01:36;;;;;;;3.63;1.70;;;;;;;27.11;47.30;100130.00;5093244;28;20042;-64
2023/07/30 12:04:03;;;;;;;4.35;1.85;;;;;;;27.35;46.35;100135.56;5092334;28;20036;-64
2023/07/30 12:06:49;;;;;;;3.35;1.80;;;;;;;25.82;47.93;100136.38;5092046;28;20044;-64
2023/07/30 12:09:17;;;;;;;4.60;1.80;;;;;;;25.54;49.02;100145.91;5092060;28;20039;-65
2023/07/30 12:11:53;;;;;;;2.88;1.83;;;;;;;25.17;50.35;100148.94;5092144;28;20035;-65
2023/07/30 12:14:21;;;;;;;5.40;1.90;;;;;;;25.05;50.25;100154.66;5092161;28;20040;-65
2023/07/30 12:16:47;;;;;;;5.57;2.53;;;;;;;24.98;52.51;100145.91;5091839;28;20036;-65
2023/07/30 12:19:13;;;;;;;3.42;2.00;;;;;;;24.99;51.73;100144.81;5092086;28;20115;-64
2023/07/30 12:21:38;;;;;;;4.78;1.85;;;;;;;25.55;50.25;100142.09;5092077;28;20120;-64
2023/07/30 12:24:04;;;;;;;5.10;2.03;;;;;;;26.25;48.40;100137.56;5090867;28;20485;-63
2023/07/30 12:26:30;;;;;;;5.75;2.33;;;;;;;26.16;47.55;100152.09;5092158;28;20435;-64
2023/07/30 12:28:55;;;;;;;5.00;2.13;;;;;;;26.04;48.83;100144.22;5091948;28;20097;-64
2023/07/30 12:31:21;;;;;;;4.30;1.60;;;;;;;25.31;46.35;100146.50;5091931;28;20040;-64
2023/07/30 12:33:46;;;;;;;6.13;1.98;;;;;;;25.04;47.90;100147.59;5091964;28;20044;-64
2023/07/30 12:36:12;;;;;;;3.92;1.90;;;;;;;24.25;51.50;100156.00;5091005;28;20044;-63
2023/07/30 12:38:37;;;;;;;6.28;2.10;;;;;;;23.99;51.36;100158.59;5091139;28;20043;-64
2023/07/30 12:41:02;;;;;;;5.72;1.92;;;;;;;23.97;51.94;100163.50;5091970;28;20028;-64
2023/07/30 12:43:28;;;;;;;3.38;2.00;;;;;;;24.07;52.98;100158.13;5094120;28;20492;-63
2023/07/30 12:45:53;;;;;;;3.55;2.05;;;;;;;23.78;53.98;100162.28;5095791;28;20089;-64
2023/07/30 12:48:18;;;;;;;3.55;1.83;;;;;;;23.74;53.36;100167.44;5095825;28;20036;-64
2023/07/30 12:50:45;;;;;;;5.22;1.92;;;;;;;24.36;55.73;100146.84;5095788;28;20084;-64
2023/07/30 12:53:11;;;;;;;4.13;1.80;;;;;;;25.35;54.04;100155.75;5095891;28;20050;-63
2023/07/30 12:55:38;;;;;;;5.05;1.60;;;;;;;25.94;48.86;100161.41;5095976;28;20420;-64
2023/07/30 12:58:03;;;;;;;7.20;2.03;;;;;;;26.03;47.14;100158.97;5095622;28;20516;-64
2023/07/30 13:00:28;;;;;;;5.63;1.48;;;;;;;26.22;45.57;100157.25;5095401;28;20040;-64
2023/07/30 13:02:56;;;;;;;3.05;1.70;;;;;;;26.60;45.74;100154.91;5095781;28;20408;-64
2023/07/30 13:05:22;;;;;;;4.10;1.80;;;;;;;26.35;43.36;100155.03;5094352;28;20044;-65
2023/07/30 13:07:47;;;;;;;5.45;2.10;;;;;;;26.00;44.52;100158.69;5096387;28;20115;-65
2023/07/30 13:10:13;;;;;;;3.45;1.90;;;;;;;25.85;46.03;100156.81;5095052;28;20093;-62
2023/07/30 13:12:38;;;;;;;9.70;2.25;;;;;;;25.78;48.78;100159.84;5095560;28;20040;-65
2023/07/30 13:15:05;;;;;;;3.45;1.90;;;;;;;25.84;45.56;100163.38;5095709;28;20043;-64
2023/07/30 13:17:31;;;;;;;5.00;1.90;;;;;;;25.13;45.91;100169.66;5095606;28;20127;-64
2023/07/30 13:19:56;;;;;;;5.87;2.70;;;;;;;25.23;45.69;100166.91;5095876;28;20036;-65
2023/07/30 13:22:22;;;;;;;4.70;1.58;;;;;;;25.54;45.05;100166.91;5094401;28;20024;-64
2023/07/30 13:24:47;;;;;;;5.68;1.90;;;;;;;25.62;43.88;100159.00;5095406;28;20056;-64
2023/07/30 13:27:13;;;;;;;5.20;1.65;;;;;;;25.33;44.70;100164.19;5095470;28;20501;-63
2023/07/30 13:29:38;;;;;;;3.30;1.77;;;;;;;24.66;47.43;100165.19;5093695;28;20040;-65
2023/07/30 13:32:04;;;;;;;6.10;2.30;;;;;;;24.15;47.79;100169.56;5095293;28;20028;-65
2023/07/30 13:34:31;;;;;;;5.68;2.08;;;;;;;23.81;48.52;100167.22;5095766;28;20047;-64
2023/07/30 13:36:57;;;;;;;4.20;1.95;;;;;;;23.73;50.66;100181.28;5095179;28;20050;-65
2023/07/30 13:39:22;;;;;;;2.50;1.60;;;;;;;23.75;48.72;100174.50;5095057;28;20373;-65
2023/07/30 13:41:47;;;;;;;6.75;2.25;;;;;;;23.80;50.73;100160.13;5095325;28;20028;-63
2023/07/30 13:44:13;;;;;;;4.93;1.55;;;;;;;24.15;50.52;100164.13;5095207;28;20040;-65
2023/07/30 13:46:40;;;;;;;3.50;1.40;;;;;;;24.16;47.87;100152.16;5095041;28;20028;-65
2023/07/30 13:49:05;;;;;;;3.85;1.40;;;;;;;24.21;47.76;100160.34;5096030;28;20067;-65
2023/07/30 13:51:32;;;;;;;4.53;1.48;;;;;;;24.16;47.85;100152.97;5096746;28;20641;-65
2023/07/30 13:54:01;;;;;;;2.20;1.30;;;;;;;24.16;48.13;100158.41;5097837;28;20043;-65
2023/07/30 13:56:28;;;;;;;4.28;1.88;;;;;;;24.08;49.70;100173.34;5097646;28;20040;-64
2023/07/30 13:58:53;;;;;;;5.22;1.60;;;;;;;23.99;47.52;100176.81;5095988;28;20042;-64
2023/07/30 14:01:19;;;;;;;8.82;4.57;;;;;;;24.12;46.18;100172.81;5098136;28;20115;-65
2023/07/30 14:03:44;;;;;;;6.32;2.47;;;;;;;24.04;45.79;100166.78;5098609;28;20040;-65
2023/07/30 14:06:10;;;;;;;3.00;1.65;;;;;;;24.09;46.22;100180.41;5098488;28;20035;-64
2023/07/30 14:08:36;;;;;;;4.60;1.50;;;;;;;23.80;44.66;100192.78;5097039;28;20759;-64
2023/07/30 14:11:01;;;;;;;4.90;1.60;;;;;;;23.87;46.34;100177.03;5095340;28;20039;-65
2023/07/30 14:13:27;;;;;;;6.13;2.22;;;;;;;23.90;44.93;100186.56;5094991;28;20450;-64
2023/07/30 14:15:52;;;;;;;4.35;1.40;;;;;;;24.04;46.08;100182.28;5094666;28;20039;-64
2023/07/30 14:18:18;;;;;;;4.13;1.60;;;;;;;24.16;44.65;100185.63;5094954;28;20081;-65
2023/07/30 14:20:43;;;;;;;3.83;1.63;;;;;;;24.14;44.24;100181.53;5094878;28;20032;-65
2023/07/30 14:23:10;;;;;;;3.67;1.92;;;;;;;24.09;43.79;100198.66;5096616;28;20397;-64
2023/07/30 14:25:36;;;;;;;6.05;1.67;;;;;;;24.06;45.17;100200.00;5096625;28;20090;-65
2023/07/30 14:28:01;;;;;;;4.00;1.30;;;;;;;23.97;44.67;100198.03;5096637;28;20084;-64
2023/07/30 14:30:26;;;;;;;6.07;1.50;;;;;;;24.02;44.06;100201.59;5096533;28;20064;-63
2023/07/30 14:32:52;;;;;;;2.95;1.23;;;;;;;23.94;43.34;100190.41;5097708;28;20036;-63
2023/07/30 14:35:17;;;;;;;3.45;1.30;;;;;;;23.77;44.14;100213.13;5096467;28;20561;-64
2023/07/30 14:37:42;;;;;;;5.32;1.73;;;;;;;23.60;44.04;100195.28;5097370;28;20046;-63
2023/07/30 14:40:08;;;;;;;2.42;1.30;;;;;;;23.71;44.97;100194.31;5097052;28;20044;-64
2023/07/30 14:42:34;;;;;;;2.63;1.52;;;;;;;23.71;45.07;100195.13;5096776;28;20040;-64
2023/07/30 14:44:59;;;;;;;3.45;1.50;;;;;;;23.64;44.38;100201.88;5062106;28;20048;-63
2023/07/30 14:47:25;;;;;;;4.25;1.45;;;;;;;23.51;44.48;100205.84;5097400;28;20040;-63
2023/07/30 14:49:53;;;;;;;3.83;1.60;;;;;;;23.13;44.54;100209.56;5097172;28;20047;-64
2023/07/30 14:52:18;;;;;;;4.15;1.60;;;;;;;23.18;45.31;100220.47;5097319;28;20400;-64
2023/07/30 14:54:44;;;;;;;3.35;1.63;;;;;;;23.31;46.17;100221.97;5089610;28;20115;-65
2023/07/30 14:57:10;;;;;;;2.58;1.10;;;;;;;23.45;45.21;100218.56;5087932;28;20051;-64
2023/07/30 14:59:36;;;;;;;3.60;1.15;;;;;;;23.48;44.34;100206.38;5092351;28;20114;-65
2023/07/30 15:02:01;;;;;;;3.00;1.25;;;;;;;23.49;44.51;100211.53;5098366;28;20458;-64
2023/07/30 15:04:27;;;;;;;4.88;1.42;;;;;;;23.51;44.00;100211.28;5099558;28;20456;-64
2023/07/30 15:06:52;;;;;;;3.42;1.20;;;;;;;23.46;44.03;100211.22;5092034;28;20111;-65
2023/07/30 15:09:17;;;;;;;3.72;1.30;;;;;;;23.45;45.79;100201.44;5088152;28;20097;-64
2023/07/30 15:11:43;;;;;;;3.80;1.25;;;;;;;23.48;45.61;100206.38;5075420;28;20460;-65
2023/07/30 15:14:08;;;;;;;2.88;1.40;;;;;;;23.25;43.88;100197.47;5058589;28;20097;-65
2023/07/30 15:16:33;;;;;;;4.25;1.48;;;;;;;23.29;44.83;100219.50;5075817;28;20119;-64
2023/07/30 15:18:59;;;;;;;3.53;1.27;;;;;;;23.29;43.98;100219.50;5077947;28;20068;-64
2023/07/30 15:21:25;;;;;;;4.07;1.48;;;;;;;23.19;45.33;100220.22;5076746;28;20068;-64
2023/07/30 15:23:50;;;;;;;2.22;1.08;;;;;;;23.10;46.07;100210.09;5076706;28;20094;-64
2023/07/30 15:26:16;;;;;;;4.22;1.45;;;;;;;23.00;46.36;100217.03;5076310;28;20040;-64
2023/07/30 15:28:42;;;;;;;5.00;1.67;;;;;;;22.87;47.16;100213.91;5077571;28;20048;-64
2023/07/30 15:31:07;;;;;;;3.40;1.25;;;;;;;22.99;47.08;100214.59;5074780;28;20033;-64
2023/07/30 15:33:32;;;;;;;6.28;1.80;;;;;;;23.00;46.90;100211.59;5074325;28;20041;-65
2023/07/30 15:35:58;;;;;;;2.78;1.20;;;;;;;23.22;45.43;100214.28;5073529;28;20036;-65
2023/07/30 15:38:23;;;;;;;3.05;1.63;;;;;;;23.42;44.36;100207.41;5073118;28;20044;-65
2023/07/30 15:40:48;;;;;;;3.72;1.60;;;;;;;23.46;45.03;100228.34;5074283;28;20048;-65
2023/07/30 15:43:14;;;;;;;2.60;1.23;;;;;;;23.54;44.33;100211.59;5074501;28;20052;-64